Terminal Aerodrome Forecast
Issued by NWS

Home | Current Version | Previous Version | Text Only | Print | Product List | Glossary On
Versions: 1 2 3 4 5 6 7 8 9 10 11 12 13 14 15 16 17
233
FTUS43 KICT 222330
TAFRSL
TAF
KRSL 222330Z 2300/2324 VRB05KT P6SM SCT250
     FM230200 01014G22KT P6SM BKN200
     FM230600 02014G22KT P6SM VCSH BKN050
     FM231600 01016G25KT P6SM SCT150=

USA.gov is the U.S. government's official web portal to all federal, state and local government web resources and services.